sensor_id;sensor_type;location;lat;lon;timestamp;P1;durP1;ratioP1;P2;durP2;ratioP2
29168;SDS011;16219;42.864;23.360;2023-03-17T00:00:37;6.80;;;5.40;;
29168;SDS011;16219;42.864;23.360;2023-03-17T00:03:09;8.50;;;5.63;;
29168;SDS011;16219;42.864;23.360;2023-03-17T00:05:43;12.55;;;6.88;;
29168;SDS011;16219;42.864;23.360;2023-03-17T00:08:12;8.35;;;6.68;;
29168;SDS011;16219;42.864;23.360;2023-03-17T00:10:45;18.00;;;6.55;;
29168;SDS011;16219;42.864;23.360;2023-03-17T00:13:12;7.65;;;5.35;;
29168;SDS011;16219;42.864;23.360;2023-03-17T00:15:38;9.98;;;6.72;;
29168;SDS011;16219;42.864;23.360;2023-03-17T00:18:06;14.75;;;7.20;;
29168;SDS011;16219;42.864;23.360;2023-03-17T00:20:37;16.60;;;7.35;;
29168;SDS011;16219;42.864;23.360;2023-03-17T00:23:08;6.68;;;5.68;;
29168;SDS011;16219;42.864;23.360;2023-03-17T00:25:39;8.95;;;7.63;;
29168;SDS011;16219;42.864;23.360;2023-03-17T00:28:12;16.75;;;7.30;;
29168;SDS011;16219;42.864;23.360;2023-03-17T00:30:43;18.10;;;7.03;;
29168;SDS011;16219;42.864;23.360;2023-03-17T00:33:11;11.18;;;6.30;;
29168;SDS011;16219;42.864;23.360;2023-03-17T00:35:40;8.57;;;6.93;;
29168;SDS011;16219;42.864;23.360;2023-03-17T00:38:11;8.18;;;6.10;;
29168;SDS011;16219;42.864;23.360;2023-03-17T00:40:41;10.55;;;5.95;;
29168;SDS011;16219;42.864;23.360;2023-03-17T00:43:09;7.18;;;6.13;;
29168;SDS011;16219;42.864;23.360;2023-03-17T00:45:36;11.40;;;6.88;;
29168;SDS011;16219;42.864;23.360;2023-03-17T00:48:04;9.35;;;6.32;;
29168;SDS011;16219;42.864;23.360;2023-03-17T00:50:37;7.00;;;5.82;;
29168;SDS011;16219;42.864;23.360;2023-03-17T00:53:04;7.67;;;5.83;;
29168;SDS011;16219;42.864;23.360;2023-03-17T00:55:34;8.80;;;5.97;;
29168;SDS011;16219;42.864;23.360;2023-03-17T00:58:01;13.70;;;6.40;;
29168;SDS011;16219;42.864;23.360;2023-03-17T01:00:35;12.60;;;6.07;;
29168;SDS011;16219;42.864;23.360;2023-03-17T01:03:02;11.73;;;6.95;;
29168;SDS011;16219;42.864;23.360;2023-03-17T01:05:29;9.30;;;6.05;;
29168;SDS011;16219;42.864;23.360;2023-03-17T01:07:56;7.88;;;5.93;;
29168;SDS011;16219;42.864;23.360;2023-03-17T01:10:24;8.00;;;6.78;;
29168;SDS011;16219;42.864;23.360;2023-03-17T01:12:54;11.55;;;6.65;;
29168;SDS011;16219;42.864;23.360;2023-03-17T01:15:23;12.48;;;7.00;;
29168;SDS011;16219;42.864;23.360;2023-03-17T01:17:53;8.43;;;6.30;;
29168;SDS011;16219;42.864;23.360;2023-03-17T01:20:23;7.55;;;5.50;;
29168;SDS011;16219;42.864;23.360;2023-03-17T01:22:52;10.60;;;5.35;;
29168;SDS011;16219;42.864;23.360;2023-03-17T01:25:20;6.80;;;5.18;;
29168;SDS011;16219;42.864;23.360;2023-03-17T01:27:47;8.40;;;5.45;;
29168;SDS011;16219;42.864;23.360;2023-03-17T01:30:23;22.42;;;7.47;;
29168;SDS011;16219;42.864;23.360;2023-03-17T01:32:53;6.47;;;4.97;;
29168;SDS011;16219;42.864;23.360;2023-03-17T01:35:21;6.03;;;4.32;;
29168;SDS011;16219;42.864;23.360;2023-03-17T01:37:48;7.22;;;4.90;;
29168;SDS011;16219;42.864;23.360;2023-03-17T01:40:17;6.35;;;4.57;;
29168;SDS011;16219;42.864;23.360;2023-03-17T01:42:47;6.35;;;4.05;;
29168;SDS011;16219;42.864;23.360;2023-03-17T01:48:22;8.82;;;5.20;;
29168;SDS011;16219;42.864;23.360;2023-03-17T01:50:50;4.40;;;3.53;;
29168;SDS011;16219;42.864;23.360;2023-03-17T01:53:18;6.55;;;4.97;;
29168;SDS011;16219;42.864;23.360;2023-03-17T01:55:48;7.75;;;4.88;;
29168;SDS011;16219;42.864;23.360;2023-03-17T01:58:17;6.75;;;5.07;;
29168;SDS011;16219;42.864;23.360;2023-03-17T02:00:48;14.00;;;5.82;;
29168;SDS011;16219;42.864;23.360;2023-03-17T02:03:15;7.40;;;4.95;;
29168;SDS011;16219;42.864;23.360;2023-03-17T02:05:44;7.63;;;4.47;;
29168;SDS011;16219;42.864;23.360;2023-03-17T02:08:13;8.32;;;4.22;;
29168;SDS011;16219;42.864;23.360;2023-03-17T02:10:42;5.00;;;4.32;;
29168;SDS011;16219;42.864;23.360;2023-03-17T02:13:12;6.47;;;5.28;;
29168;SDS011;16219;42.864;23.360;2023-03-17T02:15:41;6.35;;;4.63;;
29168;SDS011;16219;42.864;23.360;2023-03-17T02:18:11;9.25;;;5.43;;
29168;SDS011;16219;42.864;23.360;2023-03-17T02:24:01;4.88;;;4.32;;
29168;SDS011;16219;42.864;23.360;2023-03-17T02:26:34;5.97;;;5.38;;
29168;SDS011;16219;42.864;23.360;2023-03-17T02:29:03;5.32;;;4.80;;
29168;SDS011;16219;42.864;23.360;2023-03-17T02:31:31;4.57;;;4.05;;
29168;SDS011;16219;42.864;23.360;2023-03-17T02:33:59;11.02;;;5.75;;
29168;SDS011;16219;42.864;23.360;2023-03-17T02:36:26;9.75;;;5.30;;
29168;SDS011;16219;42.864;23.360;2023-03-17T02:38:53;9.38;;;5.25;;
29168;SDS011;16219;42.864;23.360;2023-03-17T02:41:23;9.60;;;5.03;;
29168;SDS011;16219;42.864;23.360;2023-03-17T02:43:50;10.45;;;5.63;;
29168;SDS011;16219;42.864;23.360;2023-03-17T02:46:19;5.50;;;4.63;;
29168;SDS011;16219;42.864;23.360;2023-03-17T02:48:46;4.38;;;3.78;;
29168;SDS011;16219;42.864;23.360;2023-03-17T02:51:13;3.88;;;2.28;;
29168;SDS011;16219;42.864;23.360;2023-03-17T02:53:40;2.30;;;2.05;;
29168;SDS011;16219;42.864;23.360;2023-03-17T02:56:07;2.13;;;2.03;;
29168;SDS011;16219;42.864;23.360;2023-03-17T02:58:36;4.25;;;2.92;;
29168;SDS011;16219;42.864;23.360;2023-03-17T03:01:03;4.57;;;2.83;;
29168;SDS011;16219;42.864;23.360;2023-03-17T03:03:30;3.72;;;2.85;;
29168;SDS011;16219;42.864;23.360;2023-03-17T03:05:57;2.22;;;2.00;;
29168;SDS011;16219;42.864;23.360;2023-03-17T03:08:25;4.03;;;3.40;;
29168;SDS011;16219;42.864;23.360;2023-03-17T03:10:52;2.42;;;2.28;;
29168;SDS011;16219;42.864;23.360;2023-03-17T03:13:20;1.83;;;1.67;;
29168;SDS011;16219;42.864;23.360;2023-03-17T03:15:49;3.08;;;2.78;;
29168;SDS011;16219;42.864;23.360;2023-03-17T03:18:16;6.65;;;3.92;;
29168;SDS011;16219;42.864;23.360;2023-03-17T03:20:43;5.85;;;2.92;;
29168;SDS011;16219;42.864;23.360;2023-03-17T03:23:10;3.58;;;2.67;;
29168;SDS011;16219;42.864;23.360;2023-03-17T03:25:37;3.50;;;2.25;;
29168;SDS011;16219;42.864;23.360;2023-03-17T03:28:05;2.97;;;2.03;;
29168;SDS011;16219;42.864;23.360;2023-03-17T03:30:34;1.67;;;1.58;;
29168;SDS011;16219;42.864;23.360;2023-03-17T03:33:03;2.15;;;1.95;;
29168;SDS011;16219;42.864;23.360;2023-03-17T03:35:32;2.78;;;2.40;;
29168;SDS011;16219;42.864;23.360;2023-03-17T03:37:59;2.70;;;2.50;;
29168;SDS011;16219;42.864;23.360;2023-03-17T03:40:27;5.63;;;2.65;;
29168;SDS011;16219;42.864;23.360;2023-03-17T03:42:54;1.55;;;0.98;;
29168;SDS011;16219;42.864;23.360;2023-03-17T03:45:21;1.45;;;1.38;;
29168;SDS011;16219;42.864;23.360;2023-03-17T03:47:48;2.42;;;1.63;;
29168;SDS011;16219;42.864;23.360;2023-03-17T03:50:17;0.80;;;0.80;;
29168;SDS011;16219;42.864;23.360;2023-03-17T03:52:44;1.15;;;1.05;;
29168;SDS011;16219;42.864;23.360;2023-03-17T03:55:11;1.90;;;1.80;;
29168;SDS011;16219;42.864;23.360;2023-03-17T03:57:39;2.88;;;1.98;;
29168;SDS011;16219;42.864;23.360;2023-03-17T04:00:06;1.70;;;1.60;;
29168;SDS011;16219;42.864;23.360;2023-03-17T04:02:38;2.08;;;1.40;;
29168;SDS011;16219;42.864;23.360;2023-03-17T04:05:06;1.67;;;1.58;;
29168;SDS011;16219;42.864;23.360;2023-03-17T04:07:35;4.07;;;1.88;;
29168;SDS011;16219;42.864;23.360;2023-03-17T04:10:02;1.63;;;1.52;;
29168;SDS011;16219;42.864;23.360;2023-03-17T04:12:29;1.65;;;1.55;;
29168;SDS011;16219;42.864;23.360;2023-03-17T04:14:56;6.32;;;2.40;;
29168;SDS011;16219;42.864;23.360;2023-03-17T04:17:23;2.58;;;2.35;;
29168;SDS011;16219;42.864;23.360;2023-03-17T04:19:50;4.32;;;2.40;;
29168;SDS011;16219;42.864;23.360;2023-03-17T04:22:17;2.17;;;1.98;;
29168;SDS011;16219;42.864;23.360;2023-03-17T04:24:46;2.65;;;1.60;;
29168;SDS011;16219;42.864;23.360;2023-03-17T04:27:13;1.98;;;1.75;;
29168;SDS011;16219;42.864;23.360;2023-03-17T04:29:41;2.70;;;2.17;;
29168;SDS011;16219;42.864;23.360;2023-03-17T04:32:09;2.45;;;2.33;;
29168;SDS011;16219;42.864;23.360;2023-03-17T04:34:40;2.47;;;2.28;;
29168;SDS011;16219;42.864;23.360;2023-03-17T04:37:19;4.85;;;2.05;;
29168;SDS011;16219;42.864;23.360;2023-03-17T04:39:47;1.73;;;1.52;;
29168;SDS011;16219;42.864;23.360;2023-03-17T04:42:15;3.22;;;2.13;;
29168;SDS011;16219;42.864;23.360;2023-03-17T04:44:43;1.52;;;1.42;;
29168;SDS011;16219;42.864;23.360;2023-03-17T04:47:10;2.13;;;1.70;;
29168;SDS011;16219;42.864;23.360;2023-03-17T04:49:37;1.92;;;1.77;;
29168;SDS011;16219;42.864;23.360;2023-03-17T04:52:04;4.38;;;1.90;;
29168;SDS011;16219;42.864;23.360;2023-03-17T04:54:31;1.05;;;1.05;;
29168;SDS011;16219;42.864;23.360;2023-03-17T04:57:00;2.53;;;1.98;;
29168;SDS011;16219;42.864;23.360;2023-03-17T04:59:26;2.15;;;1.92;;
29168;SDS011;16219;42.864;23.360;2023-03-17T05:01:53;2.53;;;2.10;;
29168;SDS011;16219;42.864;23.360;2023-03-17T05:04:21;3.78;;;2.42;;
29168;SDS011;16219;42.864;23.360;2023-03-17T05:06:48;1.50;;;1.40;;
29168;SDS011;16219;42.864;23.360;2023-03-17T05:09:16;2.00;;;1.83;;
29168;SDS011;16219;42.864;23.360;2023-03-17T05:11:43;2.67;;;2.42;;
29168;SDS011;16219;42.864;23.360;2023-03-17T05:14:11;5.55;;;2.45;;
29168;SDS011;16219;42.864;23.360;2023-03-17T05:16:38;5.53;;;3.10;;
29168;SDS011;16219;42.864;23.360;2023-03-17T05:19:05;3.65;;;1.70;;
29168;SDS011;16219;42.864;23.360;2023-03-17T05:21:32;2.53;;;2.33;;
29168;SDS011;16219;42.864;23.360;2023-03-17T05:23:59;2.85;;;2.30;;
29168;SDS011;16219;42.864;23.360;2023-03-17T05:26:26;4.10;;;2.35;;
29168;SDS011;16219;42.864;23.360;2023-03-17T05:28:53;2.05;;;1.90;;
29168;SDS011;16219;42.864;23.360;2023-03-17T05:31:21;1.83;;;1.73;;
29168;SDS011;16219;42.864;23.360;2023-03-17T05:33:48;2.17;;;2.00;;
29168;SDS011;16219;42.864;23.360;2023-03-17T05:36:15;2.35;;;2.05;;
29168;SDS011;16219;42.864;23.360;2023-03-17T05:38:42;3.88;;;2.55;;
29168;SDS011;16219;42.864;23.360;2023-03-17T05:41:10;2.60;;;2.40;;
29168;SDS011;16219;42.864;23.360;2023-03-17T05:43:37;4.25;;;3.63;;
29168;SDS011;16219;42.864;23.360;2023-03-17T05:46:04;3.70;;;3.40;;
29168;SDS011;16219;42.864;23.360;2023-03-17T05:48:32;5.50;;;3.53;;
29168;SDS011;16219;42.864;23.360;2023-03-17T05:50:59;8.82;;;4.05;;
29168;SDS011;16219;42.864;23.360;2023-03-17T05:53:26;5.22;;;4.13;;
29168;SDS011;16219;42.864;23.360;2023-03-17T05:55:53;2.63;;;2.42;;
29168;SDS011;16219;42.864;23.360;2023-03-17T05:58:21;3.13;;;2.22;;
29168;SDS011;16219;42.864;23.360;2023-03-17T06:00:48;2.72;;;2.45;;
29168;SDS011;16219;42.864;23.360;2023-03-17T06:03:15;4.28;;;3.30;;
29168;SDS011;16219;42.864;23.360;2023-03-17T06:05:43;9.60;;;3.63;;
29168;SDS011;16219;42.864;23.360;2023-03-17T06:08:10;4.55;;;3.40;;
29168;SDS011;16219;42.864;23.360;2023-03-17T06:10:38;7.72;;;3.33;;
29168;SDS011;16219;42.864;23.360;2023-03-17T06:13:05;6.60;;;3.40;;
29168;SDS011;16219;42.864;23.360;2023-03-17T06:15:32;4.95;;;3.10;;
29168;SDS011;16219;42.864;23.360;2023-03-17T06:18:01;2.70;;;2.47;;
29168;SDS011;16219;42.864;23.360;2023-03-17T06:20:29;4.35;;;3.50;;
29168;SDS011;16219;42.864;23.360;2023-03-17T06:22:58;1.77;;;1.52;;
29168;SDS011;16219;42.864;23.360;2023-03-17T06:25:25;3.13;;;2.58;;
29168;SDS011;16219;42.864;23.360;2023-03-17T06:27:52;4.43;;;2.58;;
29168;SDS011;16219;42.864;23.360;2023-03-17T06:30:20;1.73;;;1.63;;
29168;SDS011;16219;42.864;23.360;2023-03-17T06:32:47;1.92;;;1.70;;
29168;SDS011;16219;42.864;23.360;2023-03-17T06:35:15;3.70;;;2.72;;
29168;SDS011;16219;42.864;23.360;2023-03-17T06:37:42;1.95;;;1.73;;
29168;SDS011;16219;42.864;23.360;2023-03-17T06:40:11;1.77;;;1.60;;
29168;SDS011;16219;42.864;23.360;2023-03-17T06:42:39;3.63;;;2.35;;
29168;SDS011;16219;42.864;23.360;2023-03-17T06:45:06;4.07;;;2.55;;
29168;SDS011;16219;42.864;23.360;2023-03-17T06:47:34;6.10;;;2.22;;
29168;SDS011;16219;42.864;23.360;2023-03-17T06:50:02;1.83;;;1.60;;
29168;SDS011;16219;42.864;23.360;2023-03-17T06:52:30;2.30;;;1.73;;
29168;SDS011;16219;42.864;23.360;2023-03-17T06:54:57;7.60;;;2.83;;
29168;SDS011;16219;42.864;23.360;2023-03-17T06:57:26;2.33;;;2.13;;
29168;SDS011;16219;42.864;23.360;2023-03-17T06:59:53;1.10;;;1.10;;
29168;SDS011;16219;42.864;23.360;2023-03-17T07:02:20;2.90;;;2.60;;
29168;SDS011;16219;42.864;23.360;2023-03-17T07:04:47;3.63;;;2.65;;
29168;SDS011;16219;42.864;23.360;2023-03-17T07:07:14;2.08;;;1.67;;
29168;SDS011;16219;42.864;23.360;2023-03-17T07:09:41;4.00;;;2.13;;
29168;SDS011;16219;42.864;23.360;2023-03-17T07:12:09;3.80;;;2.30;;
29168;SDS011;16219;42.864;23.360;2023-03-17T07:14:38;2.53;;;2.22;;
29168;SDS011;16219;42.864;23.360;2023-03-17T07:17:05;2.22;;;2.03;;
29168;SDS011;16219;42.864;23.360;2023-03-17T07:19:33;2.50;;;2.30;;
29168;SDS011;16219;42.864;23.360;2023-03-17T07:22:00;4.00;;;2.78;;
29168;SDS011;16219;42.864;23.360;2023-03-17T07:24:27;5.15;;;2.10;;
29168;SDS011;16219;42.864;23.360;2023-03-17T07:26:54;1.70;;;1.58;;
29168;SDS011;16219;42.864;23.360;2023-03-17T07:29:21;2.88;;;1.88;;
29168;SDS011;16219;42.864;23.360;2023-03-17T07:31:49;2.70;;;2.30;;
29168;SDS011;16219;42.864;23.360;2023-03-17T07:34:16;1.65;;;1.42;;
29168;SDS011;16219;42.864;23.360;2023-03-17T07:36:43;1.17;;;1.08;;
29168;SDS011;16219;42.864;23.360;2023-03-17T07:39:10;1.65;;;1.33;;
29168;SDS011;16219;42.864;23.360;2023-03-17T07:41:38;1.80;;;1.70;;
29168;SDS011;16219;42.864;23.360;2023-03-17T07:44:08;0.73;;;0.73;;
29168;SDS011;16219;42.864;23.360;2023-03-17T07:46:35;1.05;;;1.05;;
29168;SDS011;16219;42.864;23.360;2023-03-17T07:49:04;0.90;;;0.85;;
29168;SDS011;16219;42.864;23.360;2023-03-17T07:51:31;1.05;;;0.98;;
29168;SDS011;16219;42.864;23.360;2023-03-17T07:53:59;0.98;;;0.98;;
29168;SDS011;16219;42.864;23.360;2023-03-17T07:56:30;0.63;;;0.63;;
29168;SDS011;16219;42.864;23.360;2023-03-17T07:58:58;1.63;;;1.30;;
29168;SDS011;16219;42.864;23.360;2023-03-17T08:01:26;2.33;;;1.75;;
29168;SDS011;16219;42.864;23.360;2023-03-17T08:03:54;1.95;;;1.67;;
29168;SDS011;16219;42.864;23.360;2023-03-17T08:06:23;2.10;;;1.85;;
29168;SDS011;16219;42.864;23.360;2023-03-17T08:08:51;1.50;;;1.40;;
29168;SDS011;16219;42.864;23.360;2023-03-17T08:11:18;1.55;;;1.25;;
29168;SDS011;16219;42.864;23.360;2023-03-17T08:13:45;1.80;;;1.48;;
29168;SDS011;16219;42.864;23.360;2023-03-17T08:16:12;5.68;;;1.48;;
29168;SDS011;16219;42.864;23.360;2023-03-17T08:18:39;2.92;;;2.20;;
29168;SDS011;16219;42.864;23.360;2023-03-17T08:21:07;1.15;;;1.05;;
29168;SDS011;16219;42.864;23.360;2023-03-17T08:23:36;1.00;;;1.00;;
29168;SDS011;16219;42.864;23.360;2023-03-17T08:26:03;1.75;;;1.35;;
29168;SDS011;16219;42.864;23.360;2023-03-17T08:28:30;1.13;;;1.02;;
29168;SDS011;16219;42.864;23.360;2023-03-17T08:31:05;1.23;;;1.13;;
29168;SDS011;16219;42.864;23.360;2023-03-17T08:33:36;0.85;;;0.80;;
29168;SDS011;16219;42.864;23.360;2023-03-17T08:36:04;1.75;;;1.00;;
29168;SDS011;16219;42.864;23.360;2023-03-17T08:38:34;0.70;;;0.70;;
29168;SDS011;16219;42.864;23.360;2023-03-17T08:41:04;1.20;;;1.10;;
29168;SDS011;16219;42.864;23.360;2023-03-17T08:43:34;0.60;;;0.60;;
29168;SDS011;16219;42.864;23.360;2023-03-17T08:46:03;1.35;;;1.08;;
29168;SDS011;16219;42.864;23.360;2023-03-17T08:48:32;1.10;;;0.93;;
29168;SDS011;16219;42.864;23.360;2023-03-17T08:51:01;0.60;;;0.60;;
29168;SDS011;16219;42.864;23.360;2023-03-17T08:53:29;2.60;;;0.85;;
29168;SDS011;16219;42.864;23.360;2023-03-17T08:55:58;0.50;;;0.50;;
29168;SDS011;16219;42.864;23.360;2023-03-17T08:58:25;0.50;;;0.50;;
29168;SDS011;16219;42.864;23.360;2023-03-17T09:00:52;0.40;;;0.40;;
29168;SDS011;16219;42.864;23.360;2023-03-17T09:03:19;0.60;;;0.60;;
29168;SDS011;16219;42.864;23.360;2023-03-17T09:05:46;0.93;;;0.93;;
29168;SDS011;16219;42.864;23.360;2023-03-17T09:08:15;1.05;;;0.93;;
29168;SDS011;16219;42.864;23.360;2023-03-17T09:10:42;0.88;;;0.73;;
29168;SDS011;16219;42.864;23.360;2023-03-17T09:13:11;5.63;;;1.00;;
29168;SDS011;16219;42.864;23.360;2023-03-17T09:15:38;0.50;;;0.50;;
29168;SDS011;16219;42.864;23.360;2023-03-17T09:18:06;0.65;;;0.65;;
29168;SDS011;16219;42.864;23.360;2023-03-17T09:20:33;0.50;;;0.50;;
29168;SDS011;16219;42.864;23.360;2023-03-17T09:23:00;0.40;;;0.40;;
29168;SDS011;16219;42.864;23.360;2023-03-17T09:25:32;0.22;;;0.22;;
29168;SDS011;16219;42.864;23.360;2023-03-17T09:28:00;0.75;;;0.75;;
29168;SDS011;16219;42.864;23.360;2023-03-17T09:30:29;0.50;;;0.47;;
29168;SDS011;16219;42.864;23.360;2023-03-17T09:32:56;0.40;;;0.40;;
29168;SDS011;16219;42.864;23.360;2023-03-17T09:35:24;0.60;;;0.50;;
29168;SDS011;16219;42.864;23.360;2023-03-17T09:37:52;0.60;;;0.60;;
29168;SDS011;16219;42.864;23.360;2023-03-17T09:40:20;0.90;;;0.55;;
29168;SDS011;16219;42.864;23.360;2023-03-17T09:42:55;0.47;;;0.47;;
29168;SDS011;16219;42.864;23.360;2023-03-17T09:45:33;0.20;;;0.20;;
29168;SDS011;16219;42.864;23.360;2023-03-17T09:48:16;1.40;;;0.82;;
29168;SDS011;16219;42.864;23.360;2023-03-17T09:51:05;0.50;;;0.50;;
29168;SDS011;16219;42.864;23.360;2023-03-17T09:53:35;0.50;;;0.50;;
29168;SDS011;16219;42.864;23.360;2023-03-17T09:56:11;0.40;;;0.40;;
29168;SDS011;16219;42.864;23.360;2023-03-17T09:58:41;0.20;;;0.20;;
29168;SDS011;16219;42.864;23.360;2023-03-17T10:01:16;0.30;;;0.30;;
29168;SDS011;16219;42.864;23.360;2023-03-17T10:03:43;0.75;;;0.52;;
29168;SDS011;16219;42.864;23.360;2023-03-17T10:06:14;0.50;;;0.50;;
29168;SDS011;16219;42.864;23.360;2023-03-17T10:08:59;0.65;;;0.50;;
29168;SDS011;16219;42.864;23.360;2023-03-17T10:11:38;0.82;;;0.82;;
29168;SDS011;16219;42.864;23.360;2023-03-17T10:14:10;0.60;;;0.60;;
29168;SDS011;16219;42.864;23.360;2023-03-17T10:16:50;0.40;;;0.40;;
29168;SDS011;16219;42.864;23.360;2023-03-17T10:19:25;0.65;;;0.65;;
29168;SDS011;16219;42.864;23.360;2023-03-17T10:21:55;0.55;;;0.55;;
29168;SDS011;16219;42.864;23.360;2023-03-17T10:24:26;0.60;;;0.60;;
29168;SDS011;16219;42.864;23.360;2023-03-17T10:26:57;0.82;;;0.82;;
29168;SDS011;16219;42.864;23.360;2023-03-17T10:29:30;0.30;;;0.30;;
29168;SDS011;16219;42.864;23.360;2023-03-17T10:31:59;0.85;;;0.60;;
29168;SDS011;16219;42.864;23.360;2023-03-17T10:34:26;0.70;;;0.70;;
29168;SDS011;16219;42.864;23.360;2023-03-17T10:36:58;0.68;;;0.35;;
29168;SDS011;16219;42.864;23.360;2023-03-17T10:39:27;0.40;;;0.40;;
29168;SDS011;16219;42.864;23.360;2023-03-17T10:41:56;0.30;;;0.30;;
29168;SDS011;16219;42.864;23.360;2023-03-17T10:44:32;0.98;;;0.82;;
29168;SDS011;16219;42.864;23.360;2023-03-17T10:47:17;0.60;;;0.60;;
29168;SDS011;16219;42.864;23.360;2023-03-17T10:49:47;0.40;;;0.40;;
29168;SDS011;16219;42.864;23.360;2023-03-17T10:52:17;0.25;;;0.25;;
29168;SDS011;16219;42.864;23.360;2023-03-17T10:54:48;0.20;;;0.20;;
29168;SDS011;16219;42.864;23.360;2023-03-17T10:57:16;0.77;;;0.77;;
29168;SDS011;16219;42.864;23.360;2023-03-17T10:59:48;0.40;;;0.40;;
29168;SDS011;16219;42.864;23.360;2023-03-17T11:02:19;0.43;;;0.43;;
29168;SDS011;16219;42.864;23.360;2023-03-17T11:04:52;1.02;;;0.70;;
29168;SDS011;16219;42.864;23.360;2023-03-17T11:07:26;0.40;;;0.40;;
29168;SDS011;16219;42.864;23.360;2023-03-17T11:10:00;0.30;;;0.30;;
29168;SDS011;16219;42.864;23.360;2023-03-17T11:12:29;0.32;;;0.32;;
29168;SDS011;16219;42.864;23.360;2023-03-17T11:15:01;1.08;;;0.70;;
29168;SDS011;16219;42.864;23.360;2023-03-17T11:17:43;0.60;;;0.60;;
29168;SDS011;16219;42.864;23.360;2023-03-17T11:20:28;0.35;;;0.35;;
29168;SDS011;16219;42.864;23.360;2023-03-17T11:23:06;2.67;;;0.82;;
29168;SDS011;16219;42.864;23.360;2023-03-17T11:25:41;0.30;;;0.30;;
29168;SDS011;16219;42.864;23.360;2023-03-17T11:28:14;0.88;;;0.50;;
29168;SDS011;16219;42.864;23.360;2023-03-17T11:30:46;1.90;;;0.57;;
29168;SDS011;16219;42.864;23.360;2023-03-17T11:33:28;0.52;;;0.52;;
29168;SDS011;16219;42.864;23.360;2023-03-17T11:36:00;1.40;;;0.50;;
29168;SDS011;16219;42.864;23.360;2023-03-17T11:38:36;0.70;;;0.70;;
29168;SDS011;16219;42.864;23.360;2023-03-17T11:41:18;0.30;;;0.30;;
29168;SDS011;16219;42.864;23.360;2023-03-17T11:47:07;0.73;;;0.73;;
29168;SDS011;16219;42.864;23.360;2023-03-17T11:49:48;0.32;;;0.32;;
29168;SDS011;16219;42.864;23.360;2023-03-17T11:52:23;0.50;;;0.50;;
29168;SDS011;16219;42.864;23.360;2023-03-17T11:54:57;0.55;;;0.50;;
29168;SDS011;16219;42.864;23.360;2023-03-17T11:57:37;0.40;;;0.40;;
29168;SDS011;16219;42.864;23.360;2023-03-17T12:00:12;1.52;;;0.80;;
29168;SDS011;16219;42.864;23.360;2023-03-17T12:02:46;0.85;;;0.73;;
29168;SDS011;16219;42.864;23.360;2023-03-17T12:05:20;0.57;;;0.40;;
29168;SDS011;16219;42.864;23.360;2023-03-17T12:07:50;0.40;;;0.40;;
29168;SDS011;16219;42.864;23.360;2023-03-17T12:10:22;0.50;;;0.50;;
29168;SDS011;16219;42.864;23.360;2023-03-17T12:12:54;0.45;;;0.45;;
29168;SDS011;16219;42.864;23.360;2023-03-17T12:15:27;1.38;;;0.90;;
29168;SDS011;16219;42.864;23.360;2023-03-17T12:17:58;0.75;;;0.57;;
29168;SDS011;16219;42.864;23.360;2023-03-17T12:20:33;0.40;;;0.40;;
29168;SDS011;16219;42.864;23.360;2023-03-17T12:23:09;1.88;;;1.63;;
29168;SDS011;16219;42.864;23.360;2023-03-17T12:25:46;1.73;;;0.68;;
29168;SDS011;16219;42.864;23.360;2023-03-17T12:28:17;0.88;;;0.88;;
29168;SDS011;16219;42.864;23.360;2023-03-17T12:30:51;0.28;;;0.28;;
29168;SDS011;16219;42.864;23.360;2023-03-17T12:33:21;0.38;;;0.38;;
29168;SDS011;16219;42.864;23.360;2023-03-17T12:35:54;0.52;;;0.52;;
29168;SDS011;16219;42.864;23.360;2023-03-17T12:38:24;0.88;;;0.82;;
29168;SDS011;16219;42.864;23.360;2023-03-17T12:41:05;0.28;;;0.28;;
29168;SDS011;16219;42.864;23.360;2023-03-17T12:43:52;0.20;;;0.20;;
29168;SDS011;16219;42.864;23.360;2023-03-17T12:49:30;0.38;;;0.38;;
29168;SDS011;16219;42.864;23.360;2023-03-17T12:52:32;0.32;;;0.32;;
29168;SDS011;16219;42.864;23.360;2023-03-17T12:55:10;0.38;;;0.38;;
29168;SDS011;16219;42.864;23.360;2023-03-17T12:57:40;0.25;;;0.25;;
29168;SDS011;16219;42.864;23.360;2023-03-17T13:00:15;1.20;;;1.20;;
29168;SDS011;16219;42.864;23.360;2023-03-17T13:02:48;0.80;;;0.80;;
29168;SDS011;16219;42.864;23.360;2023-03-17T13:05:17;0.82;;;0.73;;
29168;SDS011;16219;42.864;23.360;2023-03-17T13:07:58;0.30;;;0.30;;
29168;SDS011;16219;42.864;23.360;2023-03-17T13:10:34;0.30;;;0.30;;
29168;SDS011;16219;42.864;23.360;2023-03-17T13:13:05;0.60;;;0.60;;
29168;SDS011;16219;42.864;23.360;2023-03-17T13:15:53;0.45;;;0.45;;
29168;SDS011;16219;42.864;23.360;2023-03-17T13:18:44;0.50;;;0.50;;
29168;SDS011;16219;42.864;23.360;2023-03-17T13:21:15;0.40;;;0.40;;
29168;SDS011;16219;42.864;23.360;2023-03-17T13:23:47;0.47;;;0.47;;
29168;SDS011;16219;42.864;23.360;2023-03-17T13:29:23;0.32;;;0.32;;
29168;SDS011;16219;42.864;23.360;2023-03-17T13:35:14;0.40;;;0.40;;
29168;SDS011;16219;42.864;23.360;2023-03-17T13:37:49;0.55;;;0.55;;
29168;SDS011;16219;42.864;23.360;2023-03-17T13:40:37;0.50;;;0.50;;
29168;SDS011;16219;42.864;23.360;2023-03-17T13:43:20;0.75;;;0.47;;
29168;SDS011;16219;42.864;23.360;2023-03-17T13:48:59;0.40;;;0.40;;
29168;SDS011;16219;42.864;23.360;2023-03-17T13:51:30;0.40;;;0.40;;
29168;SDS011;16219;42.864;23.360;2023-03-17T13:54:06;0.43;;;0.43;;
29168;SDS011;16219;42.864;23.360;2023-03-17T13:56:48;0.60;;;0.60;;
29168;SDS011;16219;42.864;23.360;2023-03-17T13:59:18;0.47;;;0.47;;
29168;SDS011;16219;42.864;23.360;2023-03-17T14:01:46;1.20;;;0.73;;
29168;SDS011;16219;42.864;23.360;2023-03-17T14:04:20;0.40;;;0.40;;
29168;SDS011;16219;42.864;23.360;2023-03-17T14:06:52;0.85;;;0.85;;
29168;SDS011;16219;42.864;23.360;2023-03-17T14:09:26;0.47;;;0.47;;
29168;SDS011;16219;42.864;23.360;2023-03-17T14:12:02;1.23;;;1.13;;
29168;SDS011;16219;42.864;23.360;2023-03-17T14:14:39;0.57;;;0.52;;
29168;SDS011;16219;42.864;23.360;2023-03-17T14:17:12;0.30;;;0.30;;
29168;SDS011;16219;42.864;23.360;2023-03-17T14:19:41;0.88;;;0.88;;
29168;SDS011;16219;42.864;23.360;2023-03-17T14:22:26;0.63;;;0.63;;
29168;SDS011;16219;42.864;23.360;2023-03-17T14:24:53;0.70;;;0.57;;
29168;SDS011;16219;42.864;23.360;2023-03-17T14:27:23;0.65;;;0.65;;
29168;SDS011;16219;42.864;23.360;2023-03-17T14:29:52;0.40;;;0.40;;
29168;SDS011;16219;42.864;23.360;2023-03-17T14:32:19;0.30;;;0.30;;
29168;SDS011;16219;42.864;23.360;2023-03-17T14:34:52;0.50;;;0.50;;
29168;SDS011;16219;42.864;23.360;2023-03-17T14:37:21;0.52;;;0.52;;
29168;SDS011;16219;42.864;23.360;2023-03-17T14:39:50;0.57;;;0.57;;
29168;SDS011;16219;42.864;23.360;2023-03-17T14:42:19;0.70;;;0.70;;
29168;SDS011;16219;42.864;23.360;2023-03-17T14:44:59;1.05;;;0.70;;
29168;SDS011;16219;42.864;23.360;2023-03-17T14:47:29;0.52;;;0.52;;
29168;SDS011;16219;42.864;23.360;2023-03-17T14:50:02;0.60;;;0.60;;
29168;SDS011;16219;42.864;23.360;2023-03-17T14:52:37;0.30;;;0.30;;
29168;SDS011;16219;42.864;23.360;2023-03-17T14:55:05;0.60;;;0.60;;
29168;SDS011;16219;42.864;23.360;2023-03-17T14:57:35;0.80;;;0.63;;
29168;SDS011;16219;42.864;23.360;2023-03-17T15:00:14;1.58;;;0.70;;
29168;SDS011;16219;42.864;23.360;2023-03-17T15:02:53;0.43;;;0.43;;
29168;SDS011;16219;42.864;23.360;2023-03-17T15:05:23;0.40;;;0.40;;
29168;SDS011;16219;42.864;23.360;2023-03-17T15:07:55;0.50;;;0.50;;
29168;SDS011;16219;42.864;23.360;2023-03-17T15:10:23;0.70;;;0.70;;
29168;SDS011;16219;42.864;23.360;2023-03-17T15:12:58;1.15;;;0.68;;